createdAt,value
2022-09-05T10:21:34.447Z,21.23
2022-09-05T10:24:48.599Z,21.70
2022-09-05T10:27:57.531Z,22.25
2022-09-05T10:32:24.562Z,22.38
2022-09-05T10:35:17.316Z,22.72
2022-09-05T10:37:20.149Z,22.97
2022-09-05T10:40:10.938Z,23.36
2022-09-05T10:43:03.044Z,23.56
2022-09-05T10:45:54.826Z,23.57
2022-09-05T10:48:53.072Z,23.51
2022-09-05T10:51:51.731Z,23.19
2022-09-05T10:54:52.576Z,23.46
2022-09-05T10:58:04.432Z,23.72
2022-09-05T11:02:23.487Z,23.94
2022-09-05T11:04:13.851Z,24.31
2022-09-05T11:07:09.636Z,24.68
2022-09-05T11:10:05.355Z,24.68
2022-09-05T11:13:16.845Z,24.89
2022-09-05T11:16:15.985Z,25.36
2022-09-05T11:19:05.472Z,25.54
2022-09-05T11:22:04.052Z,25.63
2022-09-05T11:25:16.993Z,24.88
2022-09-05T11:28:16.027Z,23.77
2022-09-05T11:31:06.246Z,23.35
2022-09-05T11:39:54.591Z,22.85
2022-09-05T11:39:55.602Z,23.38
2022-09-05T11:41:54.221Z,22.68
2022-09-05T11:44:57.367Z,22.85
2022-09-05T11:48:19.126Z,23.85
2022-09-05T11:51:41.028Z,24.04
2022-09-05T11:54:57.552Z,24.52
2022-09-05T11:58:43.400Z,24.41
2022-09-05T12:01:43.336Z,24.85
2022-09-05T12:05:48.921Z,25.26
2022-09-05T12:08:08.211Z,25.39
2022-09-05T12:11:05.439Z,25.44
2022-09-05T12:14:01.886Z,24.90
2022-09-05T12:17:35.250Z,25.60
2022-09-05T12:20:32.724Z,25.68
2022-09-05T12:23:57.948Z,25.53
2022-09-05T12:27:42.469Z,25.73
2022-09-05T12:29:59.430Z,26.14
2022-09-05T12:34:46.678Z,25.97
2022-09-05T12:40:45.163Z,26.27
2022-09-05T12:41:32.639Z,26.31
2022-09-05T12:42:56.191Z,25.36
2022-09-05T12:45:58.069Z,25.90
2022-09-05T12:48:53.984Z,25.91
2022-09-05T12:51:47.821Z,25.51
2022-09-05T12:54:42.590Z,25.68
2022-09-05T13:02:53.382Z,25.78
2022-09-05T13:03:07.540Z,25.49
2022-09-05T13:07:09.633Z,25.26
2022-09-05T13:11:24.141Z,25.58
2022-09-05T13:15:02.798Z,25.54
2022-09-05T13:16:23.112Z,25.07
2022-09-05T13:19:28.338Z,25.04
2022-09-05T13:22:17.585Z,25.07
2022-09-05T13:25:09.434Z,25.02
2022-09-05T13:28:02.012Z,25.00
2022-09-05T13:38:07.998Z,25.04
2022-09-05T13:38:10.406Z,25.20
2022-09-05T13:38:12.465Z,24.91
2022-09-05T13:40:38.731Z,24.62
2022-09-05T13:43:28.323Z,24.66
2022-09-05T13:46:20.104Z,24.63
2022-09-05T13:49:25.101Z,24.77
2022-09-05T13:52:29.036Z,24.72
2022-09-05T13:55:37.874Z,24.31
2022-09-05T13:58:39.740Z,24.31
2022-09-05T14:01:37.906Z,24.20
2022-09-05T14:05:14.760Z,23.93
2022-09-05T14:08:28.461Z,23.98
2022-09-05T14:11:50.270Z,23.80
2022-09-05T14:18:00.573Z,22.94
2022-09-05T14:21:10.956Z,22.90
2022-09-05T14:24:04.609Z,22.97
2022-09-05T14:26:55.538Z,22.88
2022-09-05T14:29:39.073Z,22.90
2022-09-05T14:37:38.789Z,23.18
2022-09-05T14:37:58.325Z,23.39
2022-09-05T14:38:41.271Z,23.61
2022-09-05T14:41:44.252Z,23.61
2022-09-05T14:44:42.243Z,23.65
2022-09-05T14:47:35.303Z,23.68
2022-09-05T14:50:30.060Z,24.06
2022-09-05T14:56:23.157Z,24.41
2022-09-05T15:02:43.484Z,24.41
2022-09-05T15:02:54.063Z,24.33
2022-09-05T15:04:34.782Z,23.73
2022-09-05T15:07:08.745Z,23.27
2022-09-05T15:12:18.010Z,22.83
2022-09-05T15:12:38.552Z,22.84
2022-09-05T15:15:22.601Z,22.72
2022-09-05T15:17:54.069Z,22.74
2022-09-05T15:20:33.421Z,22.59
2022-09-05T15:23:11.293Z,22.57
2022-09-05T15:25:48.266Z,22.26
2022-09-05T15:28:21.663Z,22.24
2022-09-05T15:30:59.945Z,22.49
2022-09-05T15:33:31.217Z,22.92
2022-09-05T15:36:00.737Z,23.43
2022-09-05T15:38:38.729Z,23.10
2022-09-05T15:41:24.561Z,22.70
2022-09-05T15:43:58.294Z,22.63
2022-09-05T15:46:41.180Z,22.34
2022-09-05T15:49:23.135Z,22.17
2022-09-05T15:51:53.182Z,22.01
2022-09-05T15:54:37.777Z,21.83
2022-09-05T15:57:17.798Z,22.22
2022-09-05T15:59:49.200Z,22.35
2022-09-05T16:02:22.621Z,22.67
2022-09-05T16:10:29.588Z,22.78
2022-09-05T16:10:50.407Z,22.74
2022-09-05T16:11:07.707Z,22.60
2022-09-05T16:13:52.096Z,22.45
2022-09-05T16:23:14.932Z,22.28
2022-09-05T16:23:26.987Z,22.04
2022-09-05T16:23:31.435Z,21.84
2022-09-05T16:24:59.465Z,21.78
2022-09-05T16:27:50.725Z,21.41
2022-09-05T16:30:24.288Z,21.22
2022-09-05T16:32:58.727Z,21.07
2022-09-05T16:35:31.002Z,20.97
2022-09-05T16:38:09.751Z,20.84
2022-09-05T16:40:41.969Z,20.78
2022-09-05T16:43:16.754Z,20.74
2022-09-05T16:45:51.839Z,20.71
2022-09-05T16:48:35.027Z,20.53
2022-09-05T16:51:15.223Z,20.39
2022-09-05T16:53:58.709Z,20.46
2022-09-05T16:56:33.808Z,20.29
2022-09-05T16:59:04.301Z,20.14
2022-09-05T17:01:54.921Z,19.87
2022-09-05T17:05:04.570Z,19.65
2022-09-05T17:07:55.401Z,19.64
2022-09-05T17:10:27.418Z,19.40
2022-09-05T17:12:57.102Z,19.47
2022-09-05T17:15:28.721Z,19.35
2022-09-05T17:18:20.239Z,19.31
2022-09-05T17:20:55.012Z,19.22
2022-09-05T17:29:20.603Z,19.20
2022-09-05T17:29:33.609Z,19.17
2022-09-05T17:32:48.329Z,19.04
2022-09-05T17:35:23.999Z,18.98
2022-09-05T17:38:12.172Z,18.86
2022-09-05T17:41:17.351Z,18.72
2022-09-05T17:43:50.665Z,18.55
2022-09-05T17:46:23.694Z,18.63
2022-09-05T17:49:18.846Z,18.54
2022-09-05T17:52:23.748Z,18.44
2022-09-05T17:54:54.140Z,18.38
2022-09-05T17:57:39.930Z,18.38
2022-09-05T18:00:40.408Z,18.23
2022-09-05T18:03:08.957Z,18.22
2022-09-05T18:05:59.589Z,18.09
2022-09-05T18:08:52.632Z,18.13
2022-09-05T18:11:44.752Z,18.16
2022-09-05T18:14:50.279Z,18.03
2022-09-05T18:17:58.878Z,17.81
2022-09-05T18:20:49.855Z,17.85
2022-09-05T18:23:54.382Z,17.81
2022-09-05T18:26:25.645Z,17.76
2022-09-05T18:29:01.606Z,17.77
2022-09-05T18:32:01.579Z,17.71
2022-09-05T18:34:44.913Z,17.64
2022-09-05T18:38:00.088Z,17.78
2022-09-05T18:40:39.756Z,17.79
2022-09-05T18:43:14.630Z,17.59
2022-09-05T18:45:53.061Z,17.48
2022-09-05T18:48:29.605Z,17.43
2022-09-05T18:51:15.488Z,17.32
2022-09-05T18:53:47.416Z,17.30
2022-09-05T18:56:32.927Z,17.43
2022-09-05T18:59:17.825Z,17.30
2022-09-05T19:01:59.061Z,17.30
2022-09-05T19:04:41.495Z,17.08
2022-09-05T19:07:13.369Z,17.12
2022-09-05T19:10:03.719Z,17.11
2022-09-05T19:12:53.363Z,17.06
2022-09-05T19:15:25.020Z,17.08
2022-09-05T19:18:03.672Z,16.94
2022-09-05T19:21:12.013Z,16.78
2022-09-05T19:23:46.533Z,16.85
2022-09-05T19:26:15.002Z,16.80
2022-09-05T19:35:53.041Z,16.80
2022-09-05T19:36:53.602Z,16.84
2022-09-05T19:37:11.018Z,16.68
2022-09-05T19:37:36.618Z,16.48
2022-09-05T19:47:25.533Z,16.45
2022-09-05T19:47:37.377Z,16.40
2022-09-05T19:47:55.699Z,16.27
2022-09-05T19:48:35.783Z,16.23
2022-09-05T19:51:17.625Z,16.20
2022-09-05T19:53:53.447Z,15.93
2022-09-05T19:56:36.775Z,16.05
2022-09-05T19:59:16.440Z,15.98
2022-09-05T20:01:46.073Z,16.00
2022-09-05T20:04:18.613Z,15.89
2022-09-05T20:06:47.447Z,15.92
2022-09-05T20:09:18.957Z,15.86
2022-09-05T20:11:49.823Z,15.72
2022-09-05T20:14:21.329Z,15.62
2022-09-05T20:16:50.450Z,15.65
2022-09-05T20:19:28.291Z,15.53
2022-09-05T20:21:58.297Z,15.53
2022-09-05T20:24:28.093Z,15.49
2022-09-05T20:26:56.360Z,15.41
2022-09-05T20:29:54.144Z,15.28
2022-09-05T20:32:37.093Z,15.16
2022-09-05T20:39:08.648Z,15.08
2022-09-05T20:43:18.925Z,15.03
2022-09-05T20:43:21.747Z,15.05
2022-09-05T20:43:55.876Z,14.97
2022-09-05T20:47:46.437Z,14.93
2022-09-05T20:54:07.117Z,14.82
2022-09-05T20:54:12.669Z,14.76
2022-09-05T20:55:39.621Z,14.69
2022-09-05T20:57:51.734Z,14.78
2022-09-05T21:00:22.462Z,14.81
2022-09-05T21:02:54.566Z,14.80
2022-09-05T21:05:29.862Z,14.77
2022-09-05T21:08:24.706Z,14.72
2022-09-05T21:10:55.830Z,14.76
2022-09-05T21:13:28.703Z,14.73
2022-09-05T21:15:57.543Z,14.62
2022-09-05T21:18:30.037Z,14.64
2022-09-05T21:21:08.933Z,14.64
2022-09-05T21:24:17.269Z,14.63
2022-09-05T21:26:50.752Z,14.61
2022-09-05T21:29:32.253Z,14.50
2022-09-05T21:32:10.414Z,14.45
2022-09-05T21:34:45.359Z,14.44
2022-09-05T21:37:16.774Z,14.39
2022-09-05T21:39:59.398Z,14.37
2022-09-05T21:46:40.014Z,14.34
2022-09-05T21:47:50.093Z,14.16
2022-09-05T21:48:13.205Z,14.12
2022-09-05T21:50:45.189Z,14.08
2022-09-05T21:59:14.385Z,14.07
2022-09-05T21:59:21.116Z,13.95
2022-09-05T21:59:28.693Z,13.92
2022-09-05T22:02:00.983Z,13.79
2022-09-05T22:04:29.265Z,13.79
2022-09-05T22:07:02.586Z,13.62
2022-09-05T22:09:31.038Z,13.57
2022-09-05T22:11:59.901Z,13.50
2022-09-05T22:14:27.670Z,13.41
2022-09-05T22:16:58.488Z,13.36
2022-09-05T22:19:37.264Z,13.34
2022-09-05T22:22:15.827Z,13.32
2022-09-05T22:24:47.805Z,13.23
2022-09-05T22:27:19.810Z,13.13
2022-09-05T22:29:50.438Z,13.10
2022-09-05T22:32:34.806Z,13.14
2022-09-05T22:35:27.895Z,12.98
2022-09-05T22:38:00.524Z,12.93
2022-09-05T22:40:29.528Z,12.80
2022-09-05T22:42:58.583Z,12.68
2022-09-05T22:45:26.453Z,12.68
2022-09-05T22:47:54.493Z,12.67
2022-09-05T22:50:25.194Z,12.61
2022-09-05T22:52:53.470Z,12.61
2022-09-05T22:55:21.280Z,12.51
2022-09-05T22:57:49.596Z,12.48
2022-09-05T23:00:17.706Z,12.50
2022-09-05T23:02:50.182Z,12.48
2022-09-05T23:05:20.579Z,12.34
2022-09-05T23:07:49.861Z,12.42
2022-09-05T23:10:18.045Z,12.31
2022-09-05T23:12:46.192Z,12.28
2022-09-05T23:15:14.296Z,12.14
2022-09-05T23:17:42.304Z,12.10
2022-09-05T23:20:11.518Z,12.17
2022-09-05T23:22:39.720Z,11.97
2022-09-05T23:25:09.881Z,12.05
2022-09-05T23:27:38.461Z,12.02
2022-09-05T23:30:09.901Z,11.99
2022-09-05T23:32:38.186Z,12.08
2022-09-05T23:35:07.295Z,12.00
2022-09-05T23:37:35.232Z,11.80
2022-09-05T23:40:03.490Z,11.76
2022-09-05T23:42:32.927Z,11.72
2022-09-05T23:45:00.842Z,11.65
2022-09-05T23:47:29.750Z,11.63
2022-09-05T23:49:58.298Z,11.65
2022-09-05T23:52:26.329Z,11.53
2022-09-05T23:54:54.166Z,11.65
2022-09-05T23:57:23.250Z,11.65
2022-09-05T23:59:52.888Z,11.51
